createdAt,value
2023-05-23T00:00:29.032Z,19.52
2023-05-23T00:02:57.158Z,19.46
2023-05-23T00:05:26.878Z,19.40
2023-05-23T00:07:54.794Z,19.39
2023-05-23T00:10:23.628Z,19.37
2023-05-23T00:12:52.640Z,19.38
2023-05-23T00:15:21.029Z,19.41
2023-05-23T00:17:52.027Z,19.44
2023-05-23T00:20:21.212Z,19.44
2023-05-23T00:22:50.422Z,19.39
2023-05-23T00:25:18.405Z,19.32
2023-05-23T00:27:46.266Z,19.26
2023-05-23T00:30:14.355Z,19.23
2023-05-23T00:32:42.429Z,19.22
2023-05-23T00:35:10.659Z,19.21
2023-05-23T00:37:38.520Z,19.22
2023-05-23T00:40:09.378Z,19.16
2023-05-23T00:42:37.421Z,19.20
2023-05-23T00:45:09.435Z,19.11
2023-05-23T00:47:37.544Z,19.11
2023-05-23T00:50:09.497Z,19.08
2023-05-23T00:52:40.267Z,19.02
2023-05-23T00:55:13.430Z,19.07
2023-05-23T00:57:44.698Z,19.09
2023-05-23T01:00:14.414Z,19.11
2023-05-23T01:02:46.143Z,19.11
2023-05-23T01:05:17.696Z,19.15
2023-05-23T01:07:46.844Z,19.11
2023-05-23T01:10:18.264Z,19.09
2023-05-23T01:12:58.032Z,19.10
2023-05-23T01:15:38.972Z,19.05
2023-05-23T01:18:11.688Z,19.05
2023-05-23T01:20:45.390Z,19.09
2023-05-23T01:23:38.360Z,19.19
2023-05-23T01:26:19.979Z,19.21
2023-05-23T01:28:55.111Z,19.21
2023-05-23T01:31:26.890Z,19.22
2023-05-23T01:33:57.133Z,19.28
2023-05-23T01:36:25.407Z,19.35
2023-05-23T01:38:53.451Z,19.35
2023-05-23T01:41:21.889Z,19.34
2023-05-23T01:43:51.342Z,19.36
2023-05-23T01:46:20.120Z,19.43
2023-05-23T01:48:49.087Z,19.45
2023-05-23T01:51:17.276Z,19.52
2023-05-23T01:53:45.416Z,19.51
2023-05-23T01:56:13.876Z,19.56
2023-05-23T01:58:42.444Z,19.55
2023-05-23T02:01:12.671Z,19.52
2023-05-23T02:03:41.040Z,19.54
2023-05-23T02:06:08.967Z,19.60
2023-05-23T02:08:37.093Z,19.53
2023-05-23T02:11:05.122Z,19.28
2023-05-23T02:13:33.378Z,19.05
2023-05-23T02:16:01.391Z,18.80
2023-05-23T02:18:30.927Z,18.77
2023-05-23T02:20:58.759Z,18.75
2023-05-23T02:23:26.791Z,18.82
2023-05-23T02:25:54.649Z,18.85
2023-05-23T02:28:22.528Z,18.81
2023-05-23T02:30:50.559Z,18.67
2023-05-23T02:33:19.749Z,18.66
2023-05-23T02:35:51.459Z,18.62
2023-05-23T02:38:21.818Z,18.62
2023-05-23T02:40:50.691Z,18.55
2023-05-23T02:43:18.665Z,18.52
2023-05-23T02:45:46.678Z,18.48
2023-05-23T02:48:14.636Z,18.41
2023-05-23T02:50:42.700Z,18.27
2023-05-23T02:53:12.108Z,18.26
2023-05-23T02:55:40.349Z,18.21
2023-05-23T02:58:09.037Z,18.23
2023-05-23T03:00:37.685Z,18.21
2023-05-23T03:03:05.802Z,18.16
2023-05-23T03:05:34.350Z,18.19
2023-05-23T03:08:02.558Z,18.18
2023-05-23T03:10:31.822Z,18.23
2023-05-23T03:12:59.849Z,18.23
2023-05-23T03:15:27.812Z,18.20
2023-05-23T03:17:55.807Z,18.13
2023-05-23T03:20:23.864Z,18.07
2023-05-23T03:22:53.236Z,18.14
2023-05-23T03:25:23.934Z,18.07
2023-05-23T03:27:53.421Z,18.06
2023-05-23T03:30:21.674Z,18.02
2023-05-23T03:32:49.995Z,18.01
2023-05-23T03:35:18.429Z,18.06
2023-05-23T03:37:46.440Z,18.04
2023-05-23T03:40:14.351Z,18.05
2023-05-23T03:42:42.378Z,18.10
2023-05-23T03:45:12.354Z,18.09
2023-05-23T03:47:40.500Z,18.06
2023-05-23T03:50:09.323Z,18.10
2023-05-23T03:52:37.397Z,18.10
2023-05-23T03:55:05.866Z,18.06
2023-05-23T03:57:33.941Z,18.07
2023-05-23T04:00:01.922Z,18.07
2023-05-23T04:02:31.551Z,18.13
2023-05-23T04:05:00.802Z,18.16
2023-05-23T04:07:28.778Z,18.13
2023-05-23T04:09:56.636Z,18.17
2023-05-23T04:12:25.136Z,18.16
2023-05-23T04:14:53.189Z,18.09
2023-05-23T04:17:21.294Z,18.01
2023-05-23T04:19:50.861Z,17.92
2023-05-23T04:22:18.831Z,17.90
2023-05-23T04:24:46.814Z,17.77
2023-05-23T04:27:14.824Z,17.78
2023-05-23T04:29:42.844Z,17.80
2023-05-23T04:32:12.419Z,17.79
2023-05-23T04:34:41.298Z,17.80
2023-05-23T04:37:11.255Z,17.76
2023-05-23T04:39:39.078Z,17.77
2023-05-23T04:42:08.402Z,17.84
2023-05-23T04:44:37.497Z,17.85
2023-05-23T04:47:05.852Z,17.79
2023-05-23T04:49:34.667Z,17.73
2023-05-23T04:52:02.652Z,17.67
2023-05-23T04:54:33.158Z,17.59
2023-05-23T04:57:01.743Z,17.50
2023-05-23T04:59:29.632Z,17.46
2023-05-23T05:01:57.607Z,17.54
2023-05-23T05:04:25.667Z,17.54
2023-05-23T05:06:53.772Z,17.50
2023-05-23T05:09:22.290Z,17.53
2023-05-23T05:11:51.868Z,17.53
2023-05-23T05:14:22.619Z,17.54
2023-05-23T05:16:51.458Z,17.54
2023-05-23T05:19:19.628Z,17.57
2023-05-23T05:21:47.736Z,17.57
2023-05-23T05:24:15.907Z,17.52
2023-05-23T05:26:43.873Z,17.54
2023-05-23T05:29:13.469Z,17.47
2023-05-23T05:31:42.476Z,17.51
2023-05-23T05:34:11.153Z,17.54
2023-05-23T05:36:46.041Z,17.50
2023-05-23T05:39:14.410Z,17.53
2023-05-23T05:41:45.433Z,17.63
2023-05-23T05:44:14.627Z,17.62
2023-05-23T05:46:42.625Z,17.63
2023-05-23T05:49:12.361Z,17.54
2023-05-23T05:51:40.511Z,17.60
2023-05-23T05:54:08.860Z,17.58
2023-05-23T05:56:36.834Z,17.59
2023-05-23T05:59:04.746Z,17.68
2023-05-23T06:01:34.905Z,17.69
2023-05-23T06:04:03.371Z,17.65
2023-05-23T06:06:32.149Z,17.62
2023-05-23T06:09:00.548Z,17.62
2023-05-23T06:11:28.462Z,17.46
2023-05-23T06:13:56.467Z,17.48
2023-05-23T06:16:24.435Z,17.52
2023-05-23T06:18:54.189Z,17.47
2023-05-23T06:21:25.535Z,17.39
2023-05-23T06:23:53.390Z,17.42
2023-05-23T06:26:21.196Z,17.45
2023-05-23T06:28:49.375Z,17.58
2023-05-23T06:31:17.350Z,17.55
2023-05-23T06:33:45.314Z,17.50
2023-05-23T06:36:14.573Z,17.42
2023-05-23T06:38:42.555Z,17.48
2023-05-23T06:41:10.433Z,17.43
2023-05-23T06:43:38.378Z,17.43
2023-05-23T06:46:07.539Z,17.36
2023-05-23T06:48:35.564Z,17.33
2023-05-23T06:51:03.870Z,17.32
2023-05-23T06:53:33.679Z,17.32
2023-05-23T06:56:01.562Z,17.27
2023-05-23T06:58:30.004Z,17.17
2023-05-23T07:00:58.641Z,17.16
2023-05-23T07:03:27.482Z,17.23
2023-05-23T07:05:55.772Z,17.20
2023-05-23T07:08:23.892Z,17.30
2023-05-23T07:10:53.183Z,17.38
2023-05-23T07:13:21.050Z,17.34
2023-05-23T07:15:49.084Z,17.30
2023-05-23T07:18:17.034Z,17.32
2023-05-23T07:20:44.902Z,17.21
2023-05-23T07:23:12.887Z,16.96
2023-05-23T07:25:53.748Z,16.95
2023-05-23T07:28:30.499Z,16.88
2023-05-23T07:30:58.747Z,17.03
2023-05-23T07:33:26.819Z,17.04
2023-05-23T07:35:55.057Z,17.23
2023-05-23T07:38:22.899Z,17.20
2023-05-23T07:40:59.160Z,17.20
2023-05-23T07:43:32.327Z,17.15
2023-05-23T07:46:00.272Z,17.08
2023-05-23T07:48:28.219Z,17.13
2023-05-23T07:50:56.304Z,17.16
2023-05-23T07:53:24.158Z,17.34
2023-05-23T07:55:52.498Z,17.32
2023-05-23T07:58:20.509Z,17.47
2023-05-23T08:00:52.500Z,17.45
2023-05-23T08:03:21.097Z,17.51
2023-05-23T08:05:48.933Z,17.89
2023-05-23T08:08:16.789Z,18.06
2023-05-23T08:10:45.836Z,18.07
2023-05-23T08:13:14.332Z,17.89
2023-05-23T08:15:42.321Z,17.84
2023-05-23T08:18:12.209Z,17.89
2023-05-23T08:20:40.397Z,17.73
2023-05-23T08:23:08.340Z,17.47
2023-05-23T08:25:36.336Z,17.45
2023-05-23T08:28:04.221Z,17.60
2023-05-23T08:30:32.850Z,17.66
2023-05-23T08:33:04.764Z,17.32
2023-05-23T08:35:36.508Z,17.18
2023-05-23T08:38:07.766Z,17.22
2023-05-23T08:40:36.951Z,17.49
2023-05-23T08:43:05.003Z,17.71
2023-05-23T08:45:34.897Z,17.79
2023-05-23T08:48:04.491Z,18.02
2023-05-23T08:50:32.928Z,17.72
2023-05-23T08:53:03.890Z,17.58
2023-05-23T08:55:31.980Z,17.29
2023-05-23T08:58:00.735Z,17.31
2023-05-23T09:00:29.428Z,17.20
2023-05-23T09:02:58.472Z,17.18
2023-05-23T09:05:27.923Z,17.19
2023-05-23T09:07:56.868Z,17.07
2023-05-23T09:10:29.865Z,17.19
2023-05-23T09:12:58.427Z,17.22
2023-05-23T09:15:27.377Z,17.07
2023-05-23T09:18:00.672Z,16.70
2023-05-23T09:20:29.734Z,16.71
2023-05-23T09:22:58.016Z,16.58
2023-05-23T09:25:27.384Z,16.62
2023-05-23T09:27:56.686Z,16.49
2023-05-23T09:30:24.659Z,16.32
2023-05-23T09:33:04.779Z,16.12
2023-05-23T09:35:33.826Z,16.04
2023-05-23T09:38:01.814Z,15.95
2023-05-23T09:40:34.586Z,15.94
2023-05-23T09:43:07.851Z,15.91
2023-05-23T09:45:36.339Z,15.93
2023-05-23T09:48:04.508Z,15.92
2023-05-23T09:50:34.225Z,15.90
2023-05-23T09:53:02.279Z,15.80
2023-05-23T09:55:30.209Z,15.76
2023-05-23T09:58:01.883Z,15.69
2023-05-23T10:00:29.929Z,15.51
2023-05-23T10:03:08.313Z,15.36
2023-05-23T10:05:40.790Z,15.31
2023-05-23T10:08:15.460Z,15.48
2023-05-23T10:11:33.938Z,15.72
2023-05-23T10:14:07.938Z,15.70
2023-05-23T10:16:45.289Z,15.64
2023-05-23T10:19:21.856Z,15.73
2023-05-23T10:21:52.461Z,15.48
2023-05-23T10:24:21.007Z,15.55
2023-05-23T10:26:50.513Z,15.54
2023-05-23T10:29:19.998Z,15.53
2023-05-23T10:31:48.722Z,15.56
2023-05-23T10:34:24.272Z,15.64
2023-05-23T10:37:00.639Z,15.84
2023-05-23T10:39:51.081Z,15.86
2023-05-23T10:42:25.924Z,15.97
2023-05-23T10:45:15.188Z,15.95
2023-05-23T10:47:43.195Z,15.73
2023-05-23T10:50:14.614Z,15.57
2023-05-23T10:52:43.186Z,15.69
2023-05-23T10:55:15.400Z,15.76
2023-05-23T10:57:44.768Z,15.53
2023-05-23T11:00:18.125Z,15.58
2023-05-23T11:02:55.625Z,15.79
2023-05-23T11:05:26.877Z,16.00
2023-05-23T11:08:11.995Z,16.02
2023-05-23T11:10:53.898Z,16.30
2023-05-23T11:13:22.842Z,16.15
2023-05-23T11:15:52.502Z,15.77
2023-05-23T11:18:25.735Z,15.90
2023-05-23T11:20:54.821Z,16.17
2023-05-23T11:23:23.743Z,16.40
2023-05-23T11:25:53.869Z,16.81
2023-05-23T11:28:22.019Z,17.15
2023-05-23T11:30:50.998Z,17.67
2023-05-23T11:33:21.348Z,17.70
2023-05-23T11:35:51.837Z,17.68
2023-05-23T11:38:19.921Z,17.56
2023-05-23T11:40:48.364Z,17.55
2023-05-23T11:43:17.971Z,17.70
2023-05-23T11:45:47.540Z,17.67
2023-05-23T11:48:18.203Z,17.53
2023-05-23T11:50:49.170Z,17.75
2023-05-23T11:53:20.557Z,17.76
2023-05-23T11:55:53.262Z,17.59
2023-05-23T11:58:22.348Z,17.70
2023-05-23T12:00:50.794Z,17.70
2023-05-23T12:03:19.865Z,17.85
2023-05-23T12:05:49.788Z,17.83
2023-05-23T12:08:18.196Z,17.83
2023-05-23T12:10:55.354Z,17.85
2023-05-23T12:13:26.162Z,17.83
2023-05-23T12:15:56.293Z,17.73
2023-05-23T12:18:24.633Z,17.67
2023-05-23T12:20:54.533Z,17.99
2023-05-23T12:23:26.371Z,18.41
2023-05-23T12:25:55.533Z,18.51
2023-05-23T12:28:36.962Z,18.50
2023-05-23T12:31:13.594Z,18.38
2023-05-23T12:33:44.493Z,18.05
2023-05-23T12:36:13.857Z,18.08
2023-05-23T12:38:45.492Z,18.02
2023-05-23T12:41:16.906Z,18.24
2023-05-23T12:43:52.727Z,18.56
2023-05-23T12:46:20.977Z,18.71
2023-05-23T12:48:48.858Z,18.44
2023-05-23T12:51:18.724Z,18.41
2023-05-23T12:53:47.026Z,18.58
2023-05-23T12:56:15.128Z,18.39
2023-05-23T12:58:43.683Z,18.43
2023-05-23T13:01:12.330Z,18.53
2023-05-23T13:03:40.573Z,18.44
2023-05-23T13:06:09.624Z,18.41
2023-05-23T13:08:38.987Z,18.39
2023-05-23T13:11:06.927Z,18.33
2023-05-23T13:13:34.913Z,18.17
2023-05-23T13:16:02.890Z,18.13
2023-05-23T13:18:31.138Z,17.92
2023-05-23T13:20:59.140Z,17.80
2023-05-23T13:23:27.065Z,17.72
2023-05-23T13:25:58.027Z,17.91
2023-05-23T13:28:26.055Z,17.83
2023-05-23T13:30:53.963Z,17.84
2023-05-23T13:33:23.207Z,17.99
2023-05-23T13:35:52.568Z,18.03
2023-05-23T13:38:21.307Z,17.70
2023-05-23T13:40:51.698Z,17.72
2023-05-23T13:43:21.125Z,17.60
2023-05-23T13:45:49.177Z,17.41
2023-05-23T13:48:17.107Z,17.66
2023-05-23T13:50:45.613Z,17.63
2023-05-23T13:53:16.627Z,17.97
2023-05-23T13:55:45.657Z,17.91
2023-05-23T13:58:13.809Z,17.98
2023-05-23T14:00:43.388Z,17.71
2023-05-23T14:03:11.892Z,17.65
2023-05-23T14:05:39.967Z,17.89
2023-05-23T14:08:08.151Z,18.08
2023-05-23T14:10:36.029Z,18.08
2023-05-23T14:13:04.045Z,18.01
2023-05-23T14:15:33.822Z,18.01
2023-05-23T14:18:04.221Z,18.09
2023-05-23T14:20:33.154Z,18.24
2023-05-23T14:23:01.478Z,18.23
2023-05-23T14:25:29.337Z,17.99
2023-05-23T14:27:57.241Z,17.86
2023-05-23T14:30:25.824Z,17.59
2023-05-23T14:32:54.640Z,17.32
2023-05-23T14:35:25.704Z,17.13
2023-05-23T14:37:53.529Z,17.06
2023-05-23T14:40:21.607Z,17.01
2023-05-23T14:42:49.403Z,17.22
2023-05-23T14:45:19.057Z,17.39
2023-05-23T14:47:47.218Z,17.15
2023-05-23T14:50:15.919Z,17.37
2023-05-23T14:52:45.303Z,17.08
2023-05-23T14:55:13.224Z,17.14
2023-05-23T14:57:41.022Z,17.12
2023-05-23T15:00:10.269Z,17.22
2023-05-23T15:02:38.469Z,17.43
2023-05-23T15:05:07.859Z,17.60
2023-05-23T15:07:35.745Z,17.65
2023-05-23T15:10:06.441Z,17.52
2023-05-23T15:12:34.283Z,17.31
2023-05-23T15:15:04.139Z,17.06
2023-05-23T15:17:32.140Z,17.00
2023-05-23T15:20:00.151Z,17.05
2023-05-23T15:22:36.531Z,16.70
2023-05-23T15:25:08.318Z,16.56
2023-05-23T15:27:36.223Z,16.86
2023-05-23T15:30:05.238Z,17.05
2023-05-23T15:32:33.261Z,17.08
2023-05-23T15:35:01.041Z,17.29
2023-05-23T15:37:28.971Z,17.20
2023-05-23T15:39:57.022Z,16.98
2023-05-23T15:42:26.983Z,16.74
2023-05-23T15:44:54.918Z,16.95
2023-05-23T15:47:23.232Z,16.71
2023-05-23T15:49:51.156Z,16.74
2023-05-23T15:52:18.978Z,16.72
2023-05-23T15:54:47.293Z,16.68
2023-05-23T15:57:15.063Z,16.37
2023-05-23T15:59:44.536Z,16.14
2023-05-23T16:02:12.454Z,16.21
2023-05-23T16:04:40.286Z,16.13
2023-05-23T16:07:08.159Z,16.01
2023-05-23T16:09:36.034Z,16.22
2023-05-23T16:12:04.346Z,16.14
2023-05-23T16:14:35.853Z,15.92
2023-05-23T16:17:07.002Z,15.96
2023-05-23T16:19:35.545Z,15.91
2023-05-23T16:22:03.785Z,15.64
2023-05-23T16:24:31.654Z,15.74
2023-05-23T16:27:03.315Z,15.86
2023-05-23T16:29:31.728Z,15.75
2023-05-23T16:31:59.952Z,15.77
2023-05-23T16:34:29.472Z,15.86
2023-05-23T16:36:57.341Z,15.79
2023-05-23T16:39:28.626Z,15.75
2023-05-23T16:41:58.740Z,15.72
2023-05-23T16:44:28.154Z,15.84
2023-05-23T16:46:56.214Z,15.83
2023-05-23T16:49:26.953Z,15.90
2023-05-23T16:51:56.404Z,15.81
2023-05-23T16:54:28.562Z,15.70
2023-05-23T16:57:00.440Z,15.73
2023-05-23T16:59:29.013Z,15.68
2023-05-23T17:01:57.101Z,15.75
2023-05-23T17:04:25.981Z,15.90
2023-05-23T17:06:54.007Z,15.69
2023-05-23T17:09:24.349Z,15.74
2023-05-23T17:11:52.852Z,15.72
2023-05-23T17:14:21.130Z,15.81
2023-05-23T17:16:49.095Z,15.85
2023-05-23T17:19:17.091Z,15.79
2023-05-23T17:21:45.075Z,15.45
2023-05-23T17:24:13.663Z,15.34
2023-05-23T17:26:42.990Z,15.30
2023-05-23T17:29:11.130Z,15.21
2023-05-23T17:31:42.319Z,15.11
2023-05-23T17:34:12.178Z,15.20
2023-05-23T17:36:40.426Z,15.18
2023-05-23T17:39:08.617Z,15.14
2023-05-23T17:41:36.711Z,14.82
2023-05-23T17:44:05.977Z,14.67
2023-05-23T17:46:34.636Z,14.68
2023-05-23T17:49:02.709Z,14.76
2023-05-23T17:51:30.911Z,14.70
2023-05-23T17:53:59.084Z,14.55
2023-05-23T17:56:27.072Z,14.55
2023-05-23T17:58:55.007Z,14.57
2023-05-23T18:01:26.296Z,14.69
2023-05-23T18:03:54.801Z,14.73
2023-05-23T18:06:23.186Z,14.69
2023-05-23T18:08:51.260Z,14.65
2023-05-23T18:11:19.732Z,14.53
2023-05-23T18:13:47.575Z,14.48
2023-05-23T18:16:15.400Z,14.39
2023-05-23T18:18:44.791Z,14.25
2023-05-23T18:21:12.724Z,14.37
2023-05-23T18:23:40.817Z,14.51
2023-05-23T18:26:09.097Z,14.44
2023-05-23T18:28:37.044Z,14.41
2023-05-23T18:31:05.536Z,14.25
2023-05-23T18:33:33.708Z,14.24
2023-05-23T18:36:03.357Z,14.12
2023-05-23T18:38:31.240Z,14.16
2023-05-23T18:40:59.216Z,13.97
2023-05-23T18:43:27.018Z,13.89
2023-05-23T18:45:55.047Z,13.90
2023-05-23T18:48:25.353Z,14.04
2023-05-23T18:50:53.137Z,13.96
2023-05-23T18:53:23.105Z,13.81
2023-05-23T18:55:51.376Z,13.77
2023-05-23T18:58:19.687Z,13.83
2023-05-23T19:00:47.845Z,13.77
2023-05-23T19:03:16.129Z,13.73
2023-05-23T19:05:44.214Z,13.74
2023-05-23T19:08:12.056Z,13.66
2023-05-23T19:10:42.243Z,13.81
2023-05-23T19:13:10.221Z,13.79
2023-05-23T19:15:38.239Z,13.76
2023-05-23T19:18:06.243Z,13.57
2023-05-23T19:20:34.163Z,13.59
2023-05-23T19:23:02.040Z,13.58
2023-05-23T19:25:29.940Z,13.53
2023-05-23T19:27:59.171Z,13.36
2023-05-23T19:30:27.008Z,13.40
2023-05-23T19:32:55.352Z,13.30
2023-05-23T19:35:24.245Z,13.31
2023-05-23T19:37:52.325Z,13.36
2023-05-23T19:40:21.518Z,13.41
2023-05-23T19:42:49.552Z,13.31
2023-05-23T19:45:19.179Z,13.18
2023-05-23T19:47:47.367Z,13.22
2023-05-23T19:50:16.138Z,13.29
2023-05-23T19:52:44.168Z,13.24
2023-05-23T19:55:12.082Z,13.14
2023-05-23T19:57:40.003Z,13.22
2023-05-23T20:00:10.476Z,13.36
2023-05-23T20:02:39.931Z,13.27
2023-05-23T20:05:09.305Z,13.24
2023-05-23T20:07:37.665Z,13.23
2023-05-23T20:10:06.672Z,13.17
2023-05-23T20:12:34.905Z,13.11
2023-05-23T20:15:03.830Z,13.05
2023-05-23T20:17:31.914Z,13.09
2023-05-23T20:20:02.332Z,13.17
2023-05-23T20:22:30.135Z,13.22
2023-05-23T20:24:58.136Z,13.16
2023-05-23T20:27:26.805Z,13.07
2023-05-23T20:29:54.778Z,13.10
2023-05-23T20:32:23.247Z,13.18
2023-05-23T20:34:51.487Z,13.26
2023-05-23T20:37:21.048Z,13.29
2023-05-23T20:39:49.438Z,13.20
2023-05-23T20:42:17.368Z,13.16
2023-05-23T20:44:46.850Z,13.02
2023-05-23T20:47:15.611Z,13.24
2023-05-23T20:49:44.622Z,13.17
2023-05-23T20:52:12.761Z,12.97
2023-05-23T20:54:42.782Z,12.93
2023-05-23T20:57:10.683Z,12.79
2023-05-23T20:59:38.571Z,12.84
2023-05-23T21:02:08.010Z,12.83
2023-05-23T21:04:35.964Z,12.84
2023-05-23T21:07:03.992Z,12.85
2023-05-23T21:09:31.973Z,12.70
2023-05-23T21:12:02.187Z,12.77
2023-05-23T21:14:30.023Z,12.76
2023-05-23T21:16:58.129Z,12.83
2023-05-23T21:19:26.334Z,12.73
2023-05-23T21:21:56.188Z,12.72
2023-05-23T21:24:25.372Z,12.69
2023-05-23T21:26:53.365Z,12.72
2023-05-23T21:29:22.565Z,12.73
2023-05-23T21:31:50.664Z,12.79
2023-05-23T21:34:23.692Z,12.80
2023-05-23T21:36:52.490Z,12.82
2023-05-23T21:39:20.829Z,12.89
2023-05-23T21:41:48.653Z,12.80
2023-05-23T21:44:17.757Z,12.77
2023-05-23T21:46:47.437Z,12.72
2023-05-23T21:49:15.605Z,12.73
2023-05-23T21:51:44.214Z,12.70
2023-05-23T21:54:12.411Z,12.75
2023-05-23T21:56:40.392Z,12.78
2023-05-23T21:59:08.572Z,12.76
2023-05-23T22:01:36.794Z,12.75
2023-05-23T22:04:06.665Z,12.75
2023-05-23T22:06:35.042Z,12.69
2023-05-23T22:09:03.033Z,12.68
2023-05-23T22:11:34.135Z,12.64
2023-05-23T22:14:02.762Z,12.61
2023-05-23T22:16:33.261Z,12.70
2023-05-23T22:19:02.301Z,12.70
2023-05-23T22:21:31.894Z,12.66
2023-05-23T22:24:00.229Z,12.77
2023-05-23T22:26:28.687Z,12.85
2023-05-23T22:28:57.117Z,12.91
2023-05-23T22:31:25.092Z,12.83
2023-05-23T22:33:53.250Z,12.73
2023-05-23T22:36:22.056Z,12.79
2023-05-23T22:38:51.651Z,12.88
2023-05-23T22:41:19.816Z,12.79
2023-05-23T22:43:47.933Z,12.82
2023-05-23T22:46:16.188Z,12.90
2023-05-23T22:48:45.212Z,12.86
2023-05-23T22:51:14.726Z,12.84
2023-05-23T22:53:43.299Z,12.94
2023-05-23T22:56:12.997Z,13.01
2023-05-23T22:58:41.119Z,12.87
2023-05-23T23:01:09.596Z,12.78
2023-05-23T23:03:37.673Z,12.79
2023-05-23T23:06:07.728Z,12.69
2023-05-23T23:08:36.044Z,12.66
2023-05-23T23:11:04.109Z,12.68
2023-05-23T23:13:33.479Z,12.61
2023-05-23T23:16:01.296Z,12.57
2023-05-23T23:18:29.324Z,12.60
2023-05-23T23:20:57.636Z,12.65
2023-05-23T23:23:25.536Z,12.86
2023-05-23T23:25:53.685Z,12.80
2023-05-23T23:28:21.666Z,12.76
2023-05-23T23:30:50.915Z,12.72
2023-05-23T23:33:18.802Z,12.80
2023-05-23T23:35:48.714Z,12.79
2023-05-23T23:38:16.906Z,12.71
2023-05-23T23:40:45.920Z,12.67
2023-05-23T23:43:14.034Z,12.67
2023-05-23T23:45:42.204Z,12.80
2023-05-23T23:48:13.896Z,12.83
2023-05-23T23:50:42.392Z,12.80
2023-05-23T23:53:10.506Z,12.79
2023-05-23T23:55:38.353Z,12.73
2023-05-23T23:58:06.245Z,12.78
